createdAt,value
2023-03-22T00:00:00.210Z,100574.06
2023-03-22T00:00:22.110Z,100573.94
2023-03-22T00:00:43.785Z,100580.16
2023-03-22T00:01:11.302Z,100570.75
2023-03-22T00:01:34.772Z,100570.88
2023-03-22T00:01:56.612Z,100573.03
2023-03-22T00:02:18.264Z,100574.75
2023-03-22T00:02:42.059Z,100573.88
2023-03-22T00:03:04.786Z,100577.25
2023-03-22T00:03:27.606Z,100560.81
2023-03-22T00:03:50.787Z,100576.50
2023-03-22T00:04:12.467Z,100571.91
2023-03-22T00:04:34.158Z,100571.09
2023-03-22T00:04:57.058Z,100571.91
2023-03-22T00:05:18.984Z,100570.91
2023-03-22T00:05:40.650Z,100563.91
2023-03-22T00:06:02.384Z,100579.81
2023-03-22T00:06:26.641Z,100570.44
2023-03-22T00:06:49.516Z,100573.13
2023-03-22T00:07:12.286Z,100568.13
2023-03-22T00:07:34.064Z,100571.38
2023-03-22T00:07:57.919Z,100570.44
2023-03-22T00:08:20.834Z,100575.78
2023-03-22T00:08:43.481Z,100573.94
2023-03-22T00:09:05.131Z,100565.41
2023-03-22T00:09:27.726Z,100574.28
2023-03-22T00:09:49.405Z,100562.88
2023-03-22T00:10:15.132Z,100569.88
2023-03-22T00:10:38.498Z,100568.13
2023-03-22T00:11:01.565Z,100576.16
2023-03-22T00:11:24.321Z,100564.38
2023-03-22T00:11:46.224Z,100565.22
2023-03-22T00:12:08.904Z,100561.56
2023-03-22T00:12:30.554Z,100569.72
2023-03-22T00:12:52.241Z,100561.06
2023-03-22T00:13:13.854Z,100563.84
2023-03-22T00:13:37.101Z,100562.34
2023-03-22T00:14:01.270Z,100562.19
2023-03-22T00:14:23.025Z,100569.16
2023-03-22T00:14:45.417Z,100565.53
2023-03-22T00:15:08.131Z,100557.72
2023-03-22T00:15:30.792Z,100568.13
2023-03-22T00:15:52.418Z,100565.22
2023-03-22T00:16:14.847Z,100560.81
2023-03-22T00:16:36.656Z,100563.38
2023-03-22T00:17:01.874Z,100565.09
2023-03-22T00:17:25.746Z,100558.88
2023-03-22T00:17:47.770Z,100564.31
2023-03-22T00:18:12.443Z,100560.38
2023-03-22T00:18:35.079Z,100565.47
2023-03-22T00:18:56.705Z,100566.28
2023-03-22T00:19:18.465Z,100560.13
2023-03-22T00:19:42.094Z,100546.56
2023-03-22T00:20:08.564Z,100550.66
2023-03-22T00:20:30.526Z,100558.31
2023-03-22T00:20:54.177Z,100558.16
2023-03-22T00:21:17.176Z,100562.50
2023-03-22T00:21:39.872Z,100559.75
2023-03-22T00:22:03.494Z,100552.50
2023-03-22T00:22:26.622Z,100560.28
2023-03-22T00:22:48.231Z,100540.97
2023-03-22T00:23:10.843Z,100556.28
2023-03-22T00:23:32.482Z,100555.97
2023-03-22T00:23:54.261Z,100552.38
2023-03-22T00:24:15.996Z,100555.97
2023-03-22T00:24:39.164Z,100558.56
2023-03-22T00:25:08.128Z,100557.63
2023-03-22T00:25:32.620Z,100551.34
2023-03-22T00:25:55.405Z,100556.69
2023-03-22T00:26:17.938Z,100535.78
2023-03-22T00:26:39.568Z,100551.16
2023-03-22T00:27:02.681Z,100541.69
2023-03-22T00:27:25.981Z,100547.88
2023-03-22T00:27:48.618Z,100552.38
2023-03-22T00:28:10.274Z,100553.06
2023-03-22T00:28:32.305Z,100547.72
2023-03-22T00:28:53.885Z,100547.72
2023-03-22T00:29:16.497Z,100548.44
2023-03-22T00:29:38.301Z,100550.09
2023-03-22T00:29:59.931Z,100548.19
2023-03-22T00:30:21.583Z,100539.19
2023-03-22T00:30:51.000Z,100542.78
2023-03-22T00:31:13.848Z,100543.88
2023-03-22T00:31:35.736Z,100523.34
2023-03-22T00:31:57.649Z,100546.56
2023-03-22T00:32:19.792Z,100542.09
2023-03-22T00:32:42.348Z,100541.13
2023-03-22T00:33:06.168Z,100540.19
2023-03-22T00:33:28.389Z,100538.44
2023-03-22T00:33:50.299Z,100534.84
2023-03-22T00:34:12.714Z,100541.75
2023-03-22T00:34:35.565Z,100539.06
2023-03-22T00:34:57.668Z,100527.75
2023-03-22T00:35:22.238Z,100520.78
2023-03-22T00:35:48.533Z,100537.19
2023-03-22T00:36:13.096Z,100534.53
2023-03-22T00:36:34.799Z,100524.84
2023-03-22T00:36:56.427Z,100530.03
2023-03-22T00:37:18.247Z,100524.16
2023-03-22T00:37:40.570Z,100534.59
2023-03-22T00:38:14.255Z,100530.28
2023-03-22T00:38:42.783Z,100533.91
2023-03-22T00:39:05.236Z,100529.41
2023-03-22T00:39:27.911Z,100522.50
2023-03-22T00:39:49.580Z,100532.78
2023-03-22T00:40:13.395Z,100529.19
2023-03-22T00:40:36.488Z,100528.25
2023-03-22T00:41:05.346Z,100514.31
2023-03-22T00:41:28.005Z,100527.22
2023-03-22T00:41:49.643Z,100523.59
2023-03-22T00:42:11.293Z,100528.31
2023-03-22T00:42:33.071Z,100524.06
2023-03-22T00:42:55.664Z,100527.84
2023-03-22T00:43:17.574Z,100518.09
2023-03-22T00:43:40.123Z,100513.63
2023-03-22T00:44:02.732Z,100522.28
2023-03-22T00:44:25.652Z,100521.34
2023-03-22T00:44:47.297Z,100524.00
2023-03-22T00:45:11.418Z,100517.06
2023-03-22T00:45:36.221Z,100508.41
2023-03-22T00:45:58.038Z,100515.34
2023-03-22T00:46:21.239Z,100514.41
2023-03-22T00:46:42.943Z,100521.22
2023-03-22T00:47:05.821Z,100522.91
2023-03-22T00:47:27.589Z,100520.38
2023-03-22T00:47:49.590Z,100510.09
2023-03-22T00:48:14.592Z,100515.19
2023-03-22T00:48:37.408Z,100518.66
2023-03-22T00:48:58.973Z,100518.66
2023-03-22T00:49:21.770Z,100518.50
2023-03-22T00:49:43.570Z,100521.00
2023-03-22T00:50:07.605Z,100518.31
2023-03-22T00:50:30.222Z,100514.63
2023-03-22T00:50:51.920Z,100521.63
2023-03-22T00:51:14.270Z,100511.34
2023-03-22T00:51:35.938Z,100519.75
2023-03-22T00:51:58.553Z,100519.75
2023-03-22T00:52:21.356Z,100517.06
2023-03-22T00:52:43.320Z,100521.63
2023-03-22T00:53:05.809Z,100510.94
2023-03-22T00:53:29.080Z,100513.53
2023-03-22T00:53:54.301Z,100523.34
2023-03-22T00:54:17.315Z,100518.06
2023-03-22T00:54:41.918Z,100516.28
2023-03-22T00:55:08.379Z,100513.69
2023-03-22T00:55:30.446Z,100512.84
2023-03-22T00:55:54.406Z,100503.25
2023-03-22T00:56:16.263Z,100512.84
2023-03-22T00:56:45.408Z,100510.41
2023-03-22T00:57:08.421Z,100508.66
2023-03-22T00:57:31.342Z,100497.41
2023-03-22T00:57:53.217Z,100507.00
2023-03-22T00:58:15.220Z,100510.78
2023-03-22T00:58:37.142Z,100511.72
2023-03-22T00:58:59.715Z,100505.50
2023-03-22T00:59:21.996Z,100502.06
2023-03-22T00:59:43.879Z,100497.59
2023-03-22T01:00:16.009Z,100506.63
2023-03-22T01:00:41.096Z,100501.38
2023-03-22T01:01:03.008Z,100496.03
2023-03-22T01:01:24.821Z,100477.00
2023-03-22T01:01:48.723Z,100501.50
2023-03-22T01:02:13.476Z,100500.63
2023-03-22T01:02:35.205Z,100498.78
2023-03-22T01:02:59.704Z,100499.78
2023-03-22T01:03:22.028Z,100505.06
2023-03-22T01:03:45.724Z,100503.25
2023-03-22T01:04:15.287Z,100499.72
2023-03-22T01:04:37.045Z,100495.84
2023-03-22T01:05:00.351Z,100484.78
2023-03-22T01:05:22.065Z,100506.53
2023-03-22T01:05:45.463Z,100503.94
2023-03-22T01:06:08.162Z,100490.69
2023-03-22T01:06:31.015Z,100498.78
2023-03-22T01:06:59.291Z,100490.13
2023-03-22T01:07:22.116Z,100501.38
2023-03-22T01:07:44.793Z,100496.03
2023-03-22T01:08:08.869Z,100492.56
2023-03-22T01:08:33.470Z,100493.25
2023-03-22T01:08:57.281Z,100498.53
2023-03-22T01:09:23.865Z,100498.59
2023-03-22T01:09:46.604Z,100491.69
2023-03-22T01:10:10.585Z,100496.72
2023-03-22T01:10:32.919Z,100499.41
2023-03-22T01:10:55.875Z,100488.25
2023-03-22T01:11:18.750Z,100497.59
2023-03-22T01:11:41.007Z,100505.44
2023-03-22T01:12:02.830Z,100497.41
2023-03-22T01:12:24.509Z,100507.97
2023-03-22T01:12:46.350Z,100490.34
2023-03-22T01:13:09.675Z,100495.00
2023-03-22T01:13:31.420Z,100493.13
2023-03-22T01:13:56.158Z,100493.97
2023-03-22T01:14:19.460Z,100493.00
2023-03-22T01:14:42.104Z,100489.66
2023-03-22T01:15:50.522Z,100491.31
2023-03-22T01:16:13.401Z,100497.41
2023-03-22T01:16:35.744Z,100492.06
2023-03-22T01:16:57.713Z,100478.41
2023-03-22T01:17:19.670Z,100496.47
2023-03-22T01:17:43.255Z,100487.44
2023-03-22T01:18:05.551Z,100484.13
2023-03-22T01:18:27.176Z,100492.06
2023-03-22T01:18:48.818Z,100489.34
2023-03-22T01:19:11.787Z,100484.84
2023-03-22T01:19:33.798Z,100490.97
2023-03-22T01:19:55.784Z,100488.41
2023-03-22T01:20:18.185Z,100500.97
2023-03-22T01:20:41.027Z,100496.66
2023-03-22T01:21:03.186Z,100492.16
2023-03-22T01:21:25.031Z,100492.00
2023-03-22T01:21:46.828Z,100499.16
2023-03-22T01:22:08.670Z,100485.88
2023-03-22T01:22:31.848Z,100498.28
2023-03-22T01:22:53.961Z,100493.00
2023-03-22T01:23:15.889Z,100492.25
2023-03-22T01:23:38.959Z,100495.69
2023-03-22T01:24:00.684Z,100492.94
2023-03-22T01:24:22.654Z,100494.81
2023-03-22T01:24:44.433Z,100493.00
2023-03-22T01:25:07.024Z,100491.31
2023-03-22T01:25:31.639Z,100490.34
2023-03-22T01:25:53.303Z,100487.66
2023-03-22T01:26:16.383Z,100492.06
2023-03-22T01:26:38.855Z,100488.63
2023-03-22T01:27:00.786Z,100487.78
2023-03-22T01:27:23.370Z,100493.00
2023-03-22T01:27:45.401Z,100491.31
2023-03-22T01:28:07.716Z,100486.91
2023-03-22T01:28:30.307Z,100487.03
2023-03-22T01:28:52.930Z,100492.38
2023-03-22T01:29:15.587Z,100488.00
2023-03-22T01:29:37.337Z,100489.09
2023-03-22T01:29:58.956Z,100492.56
2023-03-22T01:30:20.668Z,100493.59
2023-03-22T01:30:43.569Z,100489.03
2023-03-22T01:31:05.711Z,100490.69
2023-03-22T01:31:27.413Z,100493.50
2023-03-22T01:31:49.510Z,100482.81
2023-03-22T01:32:11.288Z,100489.03
2023-03-22T01:32:34.222Z,100491.69
2023-03-22T01:32:55.818Z,100481.81
2023-03-22T01:33:17.946Z,100486.97
2023-03-22T01:33:39.783Z,100489.72
2023-03-22T01:34:02.589Z,100487.03
2023-03-22T01:34:24.410Z,100487.78
2023-03-22T01:34:46.078Z,100469.53
2023-03-22T01:35:09.986Z,100482.50
2023-03-22T01:35:33.156Z,100475.34
2023-03-22T01:35:56.315Z,100479.66
2023-03-22T01:36:18.400Z,100467.63
2023-03-22T01:36:40.123Z,100478.03
2023-03-22T01:37:02.189Z,100479.81
2023-03-22T01:37:27.554Z,100480.63
2023-03-22T01:37:50.190Z,100472.69
2023-03-22T01:38:13.239Z,100470.00
2023-03-22T01:38:45.415Z,100485.25
2023-03-22T01:39:09.320Z,100484.31
2023-03-22T01:39:32.820Z,100484.38
2023-03-22T01:39:58.813Z,100476.69
2023-03-22T01:40:20.705Z,100485.16
2023-03-22T01:40:42.800Z,100485.25
2023-03-22T01:41:05.869Z,100485.16
2023-03-22T01:41:35.026Z,100480.00
2023-03-22T01:42:02.332Z,100483.44
2023-03-22T01:42:25.790Z,100471.13
2023-03-22T01:42:49.171Z,100482.56
2023-03-22T01:43:15.896Z,100478.88
2023-03-22T01:43:38.205Z,100472.81
2023-03-22T01:44:13.599Z,100473.44
2023-03-22T01:44:36.623Z,100479.66
2023-03-22T01:45:38.129Z,100475.09
2023-03-22T01:46:01.266Z,100474.25
2023-03-22T01:46:25.797Z,100464.66
2023-03-22T01:46:49.053Z,100462.06
2023-03-22T01:47:11.658Z,100466.38
2023-03-22T01:47:35.241Z,100472.38
2023-03-22T01:48:02.181Z,100462.69
2023-03-22T01:48:31.323Z,100476.66
2023-03-22T01:48:53.243Z,100474.16
2023-03-22T01:49:18.153Z,100465.66
2023-03-22T01:49:40.797Z,100476.03
2023-03-22T01:50:02.573Z,100469.06
2023-03-22T01:50:25.913Z,100469.13
2023-03-22T01:50:56.726Z,100468.25
2023-03-22T01:51:25.038Z,100458.00
2023-03-22T01:52:00.613Z,100460.50
2023-03-22T01:52:31.393Z,100458.00
2023-03-22T01:53:09.628Z,100460.81
2023-03-22T01:53:36.387Z,100455.47
2023-03-22T01:54:02.421Z,100456.88
2023-03-22T01:54:30.092Z,100454.34
2023-03-22T01:54:55.191Z,100460.50
2023-03-22T01:55:28.057Z,100464.22
2023-03-22T01:56:03.896Z,100467.00
2023-03-22T01:56:30.188Z,100461.69
2023-03-22T01:56:54.848Z,100467.19
2023-03-22T01:57:26.758Z,100471.50
2023-03-22T01:57:50.575Z,100461.75
2023-03-22T01:58:26.074Z,100434.84
2023-03-22T01:58:55.358Z,100471.66
2023-03-22T01:59:26.803Z,100449.72
2023-03-22T02:00:18.868Z,100447.13
2023-03-22T02:01:08.373Z,100462.44
2023-03-22T02:01:47.122Z,100460.69
2023-03-22T02:02:19.865Z,100456.22
2023-03-22T02:02:52.379Z,100462.31
2023-03-22T02:03:31.216Z,100431.09
2023-03-22T02:03:58.400Z,100451.66
2023-03-22T02:04:23.439Z,100456.13
2023-03-22T02:04:50.418Z,100459.56
2023-03-22T02:05:13.143Z,100452.47
2023-03-22T02:05:37.425Z,100456.97
2023-03-22T02:05:59.884Z,100462.22
2023-03-22T02:06:22.170Z,100466.69
2023-03-22T02:06:51.629Z,100457.81
2023-03-22T02:07:25.850Z,100458.81
2023-03-22T02:07:48.847Z,100465.03
2023-03-22T02:08:10.546Z,100451.66
2023-03-22T02:08:48.238Z,100463.16
2023-03-22T02:09:17.309Z,100455.44
2023-03-22T02:09:41.310Z,100459.56
2023-03-22T02:10:04.960Z,100455.94
2023-03-22T02:10:37.552Z,100457.75
2023-03-22T02:11:02.651Z,100458.44
2023-03-22T02:11:30.864Z,100458.63
2023-03-22T02:12:05.986Z,100453.28
2023-03-22T02:12:38.373Z,100456.63
2023-03-22T02:13:38.880Z,100455.88
2023-03-22T02:14:39.340Z,100435.88
2023-03-22T02:15:47.240Z,100453.44
2023-03-22T02:16:43.649Z,100449.00
2023-03-22T02:17:25.951Z,100448.13
2023-03-22T02:18:11.317Z,100445.53
2023-03-22T02:18:47.005Z,100445.53
2023-03-22T02:19:35.713Z,100443.84
2023-03-22T02:20:38.503Z,100445.13
2023-03-22T02:21:28.947Z,100438.00
2023-03-22T02:22:22.055Z,100427.84
2023-03-22T02:23:09.113Z,100436.38
2023-03-22T02:24:09.615Z,100438.31
2023-03-22T02:25:07.188Z,100433.06
2023-03-22T02:25:59.124Z,100442.19
2023-03-22T02:26:43.925Z,100432.44
2023-03-22T02:27:28.874Z,100433.06
2023-03-22T02:28:15.685Z,100439.09
2023-03-22T02:28:45.581Z,100433.75
2023-03-22T02:29:15.179Z,100424.25
2023-03-22T02:29:45.016Z,100424.09
2023-03-22T02:30:30.835Z,100423.31
2023-03-22T02:31:15.360Z,100435.63
2023-03-22T02:32:04.125Z,100418.91
2023-03-22T02:33:23.969Z,100429.53
2023-03-22T02:34:27.233Z,100427.78
2023-03-22T02:35:21.021Z,100427.09
2023-03-22T02:35:55.883Z,100430.63
2023-03-22T02:36:48.317Z,100428.72
2023-03-22T02:37:47.408Z,100422.63
2023-03-22T02:38:37.008Z,100430.53
2023-03-22T02:39:32.513Z,100427.56
2023-03-22T02:39:59.318Z,100428.34
2023-03-22T02:40:28.991Z,100427.41
2023-03-22T02:40:57.364Z,100434.38
2023-03-22T02:41:29.904Z,100429.84
2023-03-22T02:42:04.111Z,100433.38
2023-03-22T02:42:40.776Z,100433.31
2023-03-22T02:43:12.830Z,100427.97
2023-03-22T02:43:39.193Z,100415.63
2023-03-22T02:44:10.183Z,100427.00
2023-03-22T02:44:41.064Z,100425.28
2023-03-22T02:45:10.931Z,100429.59
2023-03-22T02:45:37.957Z,100424.09
2023-03-22T02:46:06.276Z,100418.59
2023-03-22T02:46:32.688Z,100423.16
2023-03-22T02:47:03.944Z,100417.91
2023-03-22T02:47:35.444Z,100422.44
2023-03-22T02:48:05.733Z,100425.81
2023-03-22T02:48:33.699Z,100427.56
2023-03-22T02:49:03.903Z,100415.38
2023-03-22T02:49:36.130Z,100426.63
2023-03-22T02:50:04.639Z,100406.59
2023-03-22T02:50:31.521Z,100414.28
2023-03-22T02:50:55.656Z,100414.28
2023-03-22T02:51:21.321Z,100416.00
2023-03-22T02:51:47.239Z,100424.81
2023-03-22T02:52:17.742Z,100410.59
2023-03-22T02:52:44.147Z,100408.84
2023-03-22T02:53:14.684Z,100405.31
2023-03-22T02:53:42.729Z,100407.00
2023-03-22T02:54:09.226Z,100408.69
2023-03-22T02:54:39.164Z,100403.53
2023-03-22T02:55:05.950Z,100406.88
2023-03-22T02:55:33.541Z,100396.53
2023-03-22T02:55:58.501Z,100404.63
2023-03-22T02:56:26.575Z,100400.06
2023-03-22T02:56:53.319Z,100399.13
2023-03-22T02:57:22.778Z,100400.84
2023-03-22T02:57:51.154Z,100399.97
2023-03-22T02:58:17.811Z,100404.69
2023-03-22T02:58:45.679Z,100406.25
2023-03-22T02:59:12.179Z,100403.59
2023-03-22T02:59:38.389Z,100398.25
2023-03-22T03:00:04.084Z,100402.72
2023-03-22T03:00:26.904Z,100398.09
2023-03-22T03:00:53.078Z,100398.34
2023-03-22T03:01:19.986Z,100388.44
2023-03-22T03:01:46.350Z,100392.78
2023-03-22T03:02:12.045Z,100395.50
2023-03-22T03:02:35.251Z,100392.28
2023-03-22T03:02:59.987Z,100385.25
2023-03-22T03:03:25.589Z,100396.16
2023-03-22T03:03:51.235Z,100388.84
2023-03-22T03:04:17.809Z,100392.38
2023-03-22T03:04:44.733Z,100393.31
2023-03-22T03:05:11.905Z,100389.72
2023-03-22T03:05:35.223Z,100393.16
2023-03-22T03:06:00.809Z,100396.69
2023-03-22T03:06:26.272Z,100391.34
2023-03-22T03:06:52.144Z,100392.22
2023-03-22T03:07:17.717Z,100377.28
2023-03-22T03:07:43.314Z,100394.13
2023-03-22T03:08:09.236Z,100385.25
2023-03-22T03:08:35.541Z,100387.09
2023-03-22T03:08:58.272Z,100392.38
2023-03-22T03:09:22.569Z,100395.13
2023-03-22T03:09:46.774Z,100392.69
2023-03-22T03:10:13.274Z,100388.97
2023-03-22T03:10:38.396Z,100384.44
2023-03-22T03:11:01.463Z,100383.75
2023-03-22T03:11:24.300Z,100397.00
2023-03-22T03:11:48.375Z,100397.84
2023-03-22T03:12:14.805Z,100386.31
2023-03-22T03:12:36.567Z,100380.97
2023-03-22T03:12:58.198Z,100372.56
2023-03-22T03:13:20.347Z,100390.72
2023-03-22T03:13:43.014Z,100391.50
2023-03-22T03:14:05.646Z,100382.88
2023-03-22T03:14:29.523Z,100377.53
2023-03-22T03:14:52.201Z,100380.97
2023-03-22T03:15:16.861Z,100389.78
2023-03-22T03:15:42.425Z,100389.78
2023-03-22T03:16:07.523Z,100393.56
2023-03-22T03:16:34.982Z,100395.28
2023-03-22T03:17:13.187Z,100381.94
2023-03-22T03:17:45.952Z,100381.16
2023-03-22T03:18:18.692Z,100391.81
2023-03-22T03:18:46.821Z,100383.75
2023-03-22T03:19:19.827Z,100389.78
2023-03-22T03:19:49.864Z,100388.03
2023-03-22T03:20:34.404Z,100395.19
2023-03-22T03:21:02.908Z,100390.19
2023-03-22T03:21:35.553Z,100385.38
2023-03-22T03:22:04.231Z,100380.91
2023-03-22T03:22:41.286Z,100385.38
2023-03-22T03:23:15.233Z,100379.16
2023-03-22T03:23:50.232Z,100380.97
2023-03-22T03:24:23.398Z,100391.50
2023-03-22T03:24:51.716Z,100381.94
2023-03-22T03:25:24.118Z,100379.16
2023-03-22T03:25:57.805Z,100379.03
2023-03-22T03:26:29.038Z,100381.78
2023-03-22T03:26:59.808Z,100365.44
2023-03-22T03:27:27.997Z,100373.81
2023-03-22T03:27:59.270Z,100383.44
2023-03-22T03:28:30.376Z,100380.84
2023-03-22T03:28:58.321Z,100384.28
2023-03-22T03:29:25.388Z,100382.41
2023-03-22T03:29:51.164Z,100384.28
2023-03-22T03:30:16.496Z,100382.63
2023-03-22T03:30:46.105Z,100383.63
2023-03-22T03:31:16.691Z,100379.28
2023-03-22T03:31:44.916Z,100379.03
2023-03-22T03:32:11.060Z,100363.50
2023-03-22T03:32:36.181Z,100373.19
2023-03-22T03:33:09.294Z,100378.47
2023-03-22T03:33:34.335Z,100377.59
2023-03-22T03:34:09.659Z,100381.16
2023-03-22T03:34:36.873Z,100383.81
2023-03-22T03:35:05.401Z,100382.88
2023-03-22T03:35:32.497Z,100384.91
2023-03-22T03:36:00.634Z,100378.53
2023-03-22T03:36:25.304Z,100378.72
2023-03-22T03:36:53.781Z,100388.34
2023-03-22T03:37:22.684Z,100384.91
2023-03-22T03:37:47.902Z,100385.69
2023-03-22T03:38:14.671Z,100388.34
2023-03-22T03:38:40.962Z,100384.91
2023-03-22T03:39:07.763Z,100376.28
2023-03-22T03:39:33.461Z,100376.13
2023-03-22T03:40:02.474Z,100377.22
2023-03-22T03:40:29.418Z,100373.59
2023-03-22T03:40:55.972Z,100378.72
2023-03-22T03:41:20.058Z,100384.06
2023-03-22T03:41:46.351Z,100371.50
2023-03-22T03:42:14.321Z,100388.47
2023-03-22T03:42:38.330Z,100381.44
2023-03-22T03:43:03.744Z,100357.97
2023-03-22T03:43:25.536Z,100368.34
2023-03-22T03:43:49.228Z,100371.94
2023-03-22T03:44:11.547Z,100366.53
2023-03-22T03:44:36.139Z,100364.91
2023-03-22T03:45:00.881Z,100370.31
2023-03-22T03:45:23.658Z,100369.38
2023-03-22T03:45:45.740Z,100370.38
2023-03-22T03:46:08.476Z,100356.16
2023-03-22T03:46:30.766Z,100354.47
2023-03-22T03:46:54.854Z,100372.97
2023-03-22T03:47:17.204Z,100371.81
2023-03-22T03:47:44.257Z,100366.78
2023-03-22T03:48:09.485Z,100369.22
2023-03-22T03:48:35.539Z,100369.03
2023-03-22T03:48:58.708Z,100377.16
2023-03-22T03:49:23.853Z,100378.88
2023-03-22T03:49:47.788Z,100378.00
2023-03-22T03:50:11.496Z,100364.91
2023-03-22T03:50:34.520Z,100371.09
2023-03-22T03:50:58.085Z,100367.63
2023-03-22T03:51:19.921Z,100375.56
2023-03-22T03:51:49.412Z,100371.09
2023-03-22T03:52:13.265Z,100376.50
2023-03-22T03:52:35.595Z,100380.69
2023-03-22T03:52:58.268Z,100374.72
2023-03-22T03:53:20.078Z,100371.25
2023-03-22T03:53:42.792Z,100368.75
2023-03-22T03:54:04.572Z,100368.75
2023-03-22T03:54:26.477Z,100374.84
2023-03-22T03:54:49.541Z,100387.50
2023-03-22T03:55:16.342Z,100376.75
2023-03-22T03:55:38.978Z,100375.66
2023-03-22T03:56:01.093Z,100380.19
2023-03-22T03:56:29.777Z,100381.91
2023-03-22T03:56:54.705Z,100369.69
2023-03-22T03:57:17.388Z,100373.84
2023-03-22T03:57:39.366Z,100371.25
2023-03-22T03:58:01.009Z,100388.69
2023-03-22T03:58:23.111Z,100375.72
2023-03-22T03:58:45.856Z,100382.47
2023-03-22T03:59:09.089Z,100377.22
2023-03-22T03:59:32.835Z,100386.03
2023-03-22T04:00:04.558Z,100374.84
2023-03-22T04:00:47.618Z,100383.03
2023-03-22T04:01:28.560Z,100382.84
2023-03-22T04:02:10.894Z,100389.53
2023-03-22T04:02:34.007Z,100368.81
2023-03-22T04:02:56.366Z,100380.03
2023-03-22T04:03:34.045Z,100387.09
2023-03-22T04:04:01.647Z,100392.38
2023-03-22T04:04:43.616Z,100386.16
2023-03-22T04:05:07.397Z,100384.59
2023-03-22T04:05:29.022Z,100389.84
2023-03-22T04:05:50.646Z,100389.06
2023-03-22T04:06:12.583Z,100387.31
2023-03-22T04:06:40.178Z,100381.28
2023-03-22T04:07:07.089Z,100378.84
2023-03-22T04:07:31.298Z,100379.69
2023-03-22T04:07:53.190Z,100374.16
2023-03-22T04:08:15.967Z,100388.16
2023-03-22T04:08:37.919Z,100377.63
2023-03-22T04:09:01.717Z,100378.28
2023-03-22T04:09:29.901Z,100388.72
2023-03-22T04:09:58.237Z,100391.22
2023-03-22T04:10:26.186Z,100376.19
2023-03-22T04:10:50.696Z,100376.84
2023-03-22T04:11:13.283Z,100382.03
2023-03-22T04:11:36.083Z,100366.34
2023-03-22T04:12:00.190Z,100382.91
2023-03-22T04:12:21.795Z,100349.94
2023-03-22T04:13:03.431Z,100382.50
2023-03-22T04:13:25.730Z,100384.31
2023-03-22T04:13:51.263Z,100380.75
2023-03-22T04:14:16.337Z,100378.56
2023-03-22T04:14:41.799Z,100381.88
2023-03-22T04:15:14.751Z,100373.94
2023-03-22T04:15:39.445Z,100386.91
2023-03-22T04:16:07.316Z,100386.75
2023-03-22T04:16:31.938Z,100383.97
2023-03-22T04:16:54.857Z,100387.56
2023-03-22T04:17:19.756Z,100375.38
2023-03-22T04:17:41.974Z,100391.97
2023-03-22T04:18:04.848Z,100363.28
2023-03-22T04:18:29.624Z,100384.03
2023-03-22T04:18:53.646Z,100386.53
2023-03-22T04:19:16.223Z,100390.94
2023-03-22T04:19:37.824Z,100398.81
2023-03-22T04:19:59.663Z,100394.56
2023-03-22T04:20:22.296Z,100382.09
2023-03-22T04:20:49.396Z,100384.19
2023-03-22T04:21:12.302Z,100385.81
2023-03-22T04:22:07.235Z,100396.16
2023-03-22T04:22:29.094Z,100387.66
2023-03-22T04:22:52.559Z,100385.81
2023-03-22T04:23:14.921Z,100389.25
2023-03-22T04:23:36.925Z,100396.31
2023-03-22T04:23:59.883Z,100389.94
2023-03-22T04:24:24.364Z,100394.28
2023-03-22T04:24:50.092Z,100387.84
2023-03-22T04:25:18.106Z,100391.31
2023-03-22T04:25:50.502Z,100384.47
2023-03-22T04:26:21.415Z,100390.53
2023-03-22T04:27:00.095Z,100379.44
2023-03-22T04:27:30.843Z,100367.34
2023-03-22T04:27:56.353Z,100388.31
2023-03-22T04:28:19.875Z,100381.25
2023-03-22T04:28:43.438Z,100375.91
2023-03-22T04:29:06.617Z,100373.41
2023-03-22T04:29:32.066Z,100384.38
2023-03-22T04:30:07.596Z,100382.19
2023-03-22T04:30:51.873Z,100380.06
2023-03-22T04:31:37.577Z,100382.44
2023-03-22T04:32:19.467Z,100385.81
2023-03-22T04:32:41.098Z,100389.28
2023-03-22T04:33:07.264Z,100385.66
2023-03-22T04:33:54.767Z,100380.41
2023-03-22T04:34:38.778Z,100380.19
2023-03-22T04:35:06.369Z,100381.81
2023-03-22T04:35:28.263Z,100377.44
2023-03-22T04:35:50.610Z,100387.03
2023-03-22T04:36:17.473Z,100375.09
2023-03-22T04:37:02.329Z,100376.03
2023-03-22T04:37:45.644Z,100372.19
2023-03-22T04:38:12.957Z,100386.28
2023-03-22T04:38:35.408Z,100373.91
2023-03-22T04:38:57.639Z,100377.34
2023-03-22T04:39:21.145Z,100378.38
2023-03-22T04:39:51.992Z,100374.78
2023-03-22T04:40:17.446Z,100379.16
2023-03-22T04:41:02.181Z,100372.81
2023-03-22T04:41:35.939Z,100363.25
2023-03-22T04:42:00.110Z,100372.00
2023-03-22T04:42:23.407Z,100374.69
2023-03-22T04:42:57.620Z,100371.00
2023-03-22T04:43:39.276Z,100377.06
2023-03-22T04:44:05.981Z,100368.19
2023-03-22T04:44:32.692Z,100364.50
2023-03-22T04:44:54.570Z,100366.38
2023-03-22T04:45:16.411Z,100334.56
2023-03-22T04:45:50.985Z,100365.50
2023-03-22T04:46:17.811Z,100362.91
2023-03-22T04:46:44.975Z,100366.31
2023-03-22T04:47:06.835Z,100362.91
2023-03-22T04:47:30.261Z,100367.06
2023-03-22T04:47:56.519Z,100364.28
2023-03-22T04:48:22.120Z,100360.75
2023-03-22T04:48:44.755Z,100373.16
2023-03-22T04:49:07.833Z,100362.59
2023-03-22T04:49:34.887Z,100350.53
2023-03-22T04:49:57.366Z,100363.31
2023-03-22T04:50:20.883Z,100365.03
2023-03-22T04:50:47.787Z,100363.31
2023-03-22T04:51:11.409Z,100349.44
2023-03-22T04:51:39.643Z,100357.03
2023-03-22T04:52:37.451Z,100362.59
2023-03-22T04:52:59.703Z,100350.06
2023-03-22T04:53:27.125Z,100346.59
2023-03-22T04:53:53.125Z,100352.56
2023-03-22T04:54:14.850Z,100312.69
2023-03-22T04:54:38.729Z,100346.34
2023-03-22T04:55:01.228Z,100336.84
2023-03-22T04:55:23.936Z,100344.72
2023-03-22T04:55:45.592Z,100349.25
2023-03-22T04:56:11.758Z,100351.94
2023-03-22T04:56:33.662Z,100349.66
2023-03-22T04:56:56.537Z,100354.13
2023-03-22T04:57:20.000Z,100346.13
2023-03-22T04:57:43.126Z,100347.94
2023-03-22T04:58:05.483Z,100346.50
2023-03-22T04:58:28.159Z,100353.50
2023-03-22T04:58:49.800Z,100351.78
2023-03-22T04:59:11.543Z,100341.91
2023-03-22T04:59:33.268Z,100350.78
2023-03-22T04:59:56.117Z,100351.53
2023-03-22T05:00:18.687Z,100349.66
2023-03-22T05:00:42.313Z,100352.34
2023-03-22T05:01:05.377Z,100340.69
2023-03-22T05:01:27.208Z,100353.56
2023-03-22T05:01:59.999Z,100356.16
2023-03-22T05:02:26.410Z,100355.47
2023-03-22T05:02:49.598Z,100351.94
2023-03-22T05:03:39.249Z,100358.22
2023-03-22T05:04:01.062Z,100352.00
2023-03-22T05:04:23.015Z,100355.38
2023-03-22T05:04:50.323Z,100363.38
2023-03-22T05:05:25.906Z,100350.28
2023-03-22T05:05:52.659Z,100363.31
2023-03-22T05:06:16.163Z,100363.38